createdAt,value
2017-05-28T00:01:08.396Z,70.40
2017-05-28T00:03:36.618Z,70.50
2017-05-28T00:06:04.830Z,70.90
2017-05-28T00:08:33.043Z,72.30
2017-05-28T00:11:01.279Z,72.90
2017-05-28T00:13:29.479Z,72.90
2017-05-28T00:15:57.702Z,73.20
2017-05-28T00:18:25.915Z,74.20
2017-05-28T00:20:54.135Z,74.30
2017-05-28T00:23:22.367Z,74.60
2017-05-28T00:25:51.591Z,74.90
2017-05-28T00:28:19.846Z,74.80
2017-05-28T00:30:48.115Z,71.70
2017-05-28T00:33:16.336Z,74.00
2017-05-28T00:35:44.553Z,73.90
2017-05-28T00:38:12.770Z,74.70
2017-05-28T00:40:40.983Z,74.40
2017-05-28T00:43:09.202Z,74.50
2017-05-28T00:45:37.411Z,74.80
2017-05-28T00:48:05.631Z,74.80
2017-05-28T00:50:33.914Z,75.00
2017-05-28T00:53:02.130Z,75.20
2017-05-28T00:55:30.362Z,74.80
2017-05-28T00:57:58.587Z,74.80
2017-05-28T01:00:26.818Z,74.90
2017-05-28T01:02:55.092Z,74.90
2017-05-28T01:05:23.302Z,74.80
2017-05-28T01:07:51.524Z,75.10
2017-05-28T01:10:19.731Z,75.00
2017-05-28T01:12:47.982Z,74.90
2017-05-28T01:15:16.267Z,74.80
2017-05-28T01:17:44.542Z,74.60
2017-05-28T01:20:12.763Z,75.00
2017-05-28T01:22:40.974Z,75.10
2017-05-28T01:25:09.194Z,75.30
2017-05-28T01:27:37.415Z,75.00
2017-05-28T01:30:05.707Z,75.10
2017-05-28T01:32:33.920Z,75.20
2017-05-28T01:35:02.167Z,75.20
2017-05-28T01:37:30.375Z,75.00
2017-05-28T01:39:58.607Z,75.40
2017-05-28T01:42:26.895Z,76.10
2017-05-28T01:44:55.171Z,76.50
2017-05-28T01:47:23.446Z,76.50
2017-05-28T01:49:51.656Z,76.40
2017-05-28T01:52:19.877Z,75.90
2017-05-28T01:54:48.919Z,75.10
2017-05-28T01:57:17.137Z,75.40
2017-05-28T01:59:45.346Z,75.70
2017-05-28T02:02:13.566Z,75.70
2017-05-28T02:04:41.778Z,75.70
2017-05-28T02:07:10.001Z,75.90
2017-05-28T02:09:38.212Z,76.60
2017-05-28T02:12:06.427Z,75.90
2017-05-28T02:14:34.640Z,75.50
2017-05-28T02:17:02.971Z,76.00
2017-05-28T02:19:31.192Z,76.50
2017-05-28T02:21:59.403Z,76.50
2017-05-28T02:24:27.615Z,77.50
2017-05-28T02:26:55.831Z,77.50
2017-05-28T02:29:24.043Z,77.30
2017-05-28T02:31:52.315Z,77.20
2017-05-28T02:34:21.106Z,77.50
2017-05-28T02:36:49.323Z,77.60
2017-05-28T02:39:17.542Z,77.60
2017-05-28T02:41:45.759Z,77.00
2017-05-28T02:44:15.156Z,77.00
2017-05-28T02:46:43.378Z,76.80
2017-05-28T02:49:11.691Z,76.50
2017-05-28T02:51:39.967Z,77.00
2017-05-28T02:54:08.235Z,77.60
2017-05-28T02:56:36.447Z,78.10
2017-05-28T02:59:04.673Z,78.10
2017-05-28T03:01:32.959Z,77.90
2017-05-28T03:04:01.180Z,77.90
2017-05-28T03:06:29.398Z,78.00
2017-05-28T03:08:57.691Z,78.20
2017-05-28T03:11:25.902Z,78.30
2017-05-28T03:13:54.119Z,78.40
2017-05-28T03:16:22.323Z,78.50
2017-05-28T03:18:50.539Z,78.40
2017-05-28T03:21:18.863Z,78.50
2017-05-28T03:23:47.083Z,78.70
2017-05-28T03:26:15.310Z,78.80
2017-05-28T03:28:43.549Z,78.80
2017-05-28T03:31:11.750Z,78.70
2017-05-28T03:33:40.038Z,78.40
2017-05-28T03:36:09.191Z,78.00
2017-05-28T03:38:37.407Z,78.20
2017-05-28T03:41:05.631Z,78.20
2017-05-28T03:43:33.940Z,78.40
2017-05-28T03:46:02.239Z,78.60
2017-05-28T03:48:30.515Z,78.50
2017-05-28T03:50:58.790Z,78.80
2017-05-28T03:53:27.783Z,78.80
2017-05-28T03:55:56.015Z,78.90
2017-05-28T03:58:24.228Z,79.30
2017-05-28T04:00:52.447Z,79.20
2017-05-28T04:03:20.687Z,79.50
2017-05-28T04:05:48.966Z,78.70
2017-05-28T04:08:17.235Z,77.80
2017-05-28T04:10:46.179Z,77.20
2017-05-28T04:13:14.387Z,76.50
2017-05-28T04:15:42.678Z,75.80
2017-05-28T04:18:10.895Z,75.60
2017-05-28T04:20:39.167Z,75.40
2017-05-28T04:23:07.384Z,74.20
2017-05-28T04:25:35.683Z,74.20
2017-05-28T04:28:03.888Z,73.10
2017-05-28T04:30:32.107Z,73.80
2017-05-28T04:33:00.314Z,73.40
2017-05-28T04:35:28.535Z,73.40
2017-05-28T04:37:56.746Z,73.40
2017-05-28T04:40:24.972Z,74.10
2017-05-28T04:42:53.183Z,73.50
2017-05-28T04:45:21.487Z,74.20
2017-05-28T04:47:50.667Z,74.30
2017-05-28T04:50:18.883Z,74.30
2017-05-28T04:52:48.002Z,72.50
2017-05-28T04:55:16.214Z,70.60
2017-05-28T04:57:44.431Z,71.00
2017-05-28T05:00:12.679Z,69.10
2017-05-28T05:02:40.956Z,68.30
2017-05-28T05:05:09.166Z,66.40
2017-05-28T05:07:37.386Z,63.70
2017-05-28T05:10:05.679Z,62.00
2017-05-28T05:12:33.948Z,60.80
2017-05-28T05:15:02.599Z,60.10
2017-05-28T05:17:31.479Z,59.60
2017-05-28T05:19:59.714Z,59.00
2017-05-28T05:22:27.943Z,58.30
2017-05-28T05:24:56.263Z,57.60
2017-05-28T05:27:24.470Z,57.80
2017-05-28T05:29:52.692Z,57.00
2017-05-28T05:32:21.474Z,56.80
2017-05-28T05:34:49.679Z,57.70
2017-05-28T05:37:17.913Z,58.20
2017-05-28T05:39:46.119Z,57.60
2017-05-28T05:42:14.327Z,57.50
2017-05-28T05:44:42.554Z,57.30
2017-05-28T05:47:10.762Z,57.60
2017-05-28T05:49:38.990Z,56.60
2017-05-28T05:52:07.187Z,56.80
2017-05-28T05:54:35.413Z,54.20
2017-05-28T05:57:03.615Z,54.80
2017-05-28T05:59:33.008Z,54.60
2017-05-28T06:02:01.215Z,55.00
2017-05-28T06:04:29.438Z,54.00
2017-05-28T06:06:57.643Z,51.80
2017-05-28T06:09:25.870Z,50.60
2017-05-28T06:11:54.072Z,50.20
2017-05-28T06:14:22.294Z,50.00
2017-05-28T06:16:50.726Z,50.20
2017-05-28T06:19:18.931Z,48.60
2017-05-28T06:21:47.143Z,48.90
2017-05-28T06:24:15.438Z,48.10
2017-05-28T06:26:43.632Z,46.80
2017-05-28T06:29:11.851Z,44.50
2017-05-28T06:31:40.063Z,44.00
2017-05-28T06:34:08.271Z,43.60
2017-05-28T06:36:37.619Z,43.50
2017-05-28T06:41:57.280Z,40.90
2017-05-28T06:44:25.502Z,40.40
2017-05-28T06:46:53.735Z,41.00
2017-05-28T06:49:21.958Z,40.90
2017-05-28T06:51:50.197Z,40.30
2017-05-28T06:54:18.427Z,40.00
2017-05-28T06:56:46.658Z,40.00
2017-05-28T06:59:14.882Z,39.30
2017-05-28T07:01:43.118Z,39.90
2017-05-28T07:04:11.354Z,39.40
2017-05-28T07:06:39.586Z,38.90
2017-05-28T07:09:07.814Z,39.10
2017-05-28T07:11:36.029Z,38.10
2017-05-28T07:14:04.266Z,38.90
2017-05-28T07:16:32.481Z,37.00
2017-05-28T07:19:00.722Z,37.80
2017-05-28T07:21:28.947Z,37.80
2017-05-28T07:23:57.179Z,37.10
2017-05-28T07:26:25.397Z,37.00
2017-05-28T07:28:53.638Z,36.50
2017-05-28T07:31:21.857Z,36.60
2017-05-28T07:33:50.097Z,34.30
2017-05-28T07:36:18.322Z,35.90
2017-05-28T07:38:46.566Z,34.70
2017-05-28T07:41:14.785Z,34.70
2017-05-28T07:43:43.005Z,35.00
2017-05-28T07:46:11.250Z,34.90
2017-05-28T07:48:39.473Z,33.40
2017-05-28T07:51:07.702Z,34.40
2017-05-28T07:53:35.938Z,34.10
2017-05-28T07:56:04.173Z,34.20
2017-05-28T07:58:32.398Z,35.10
2017-05-28T08:01:00.639Z,33.30
2017-05-28T08:03:28.857Z,34.70
2017-05-28T08:05:57.085Z,34.40
2017-05-28T08:08:25.310Z,35.40
2017-05-28T08:10:53.533Z,37.00
2017-05-28T08:13:21.774Z,35.90
2017-05-28T08:15:49.993Z,36.60
2017-05-28T08:18:18.225Z,36.60
2017-05-28T08:20:46.462Z,37.70
2017-05-28T08:23:14.697Z,38.50
2017-05-28T08:25:42.921Z,38.50
2017-05-28T08:28:11.159Z,38.40
2017-05-28T08:30:39.378Z,39.30
2017-05-28T08:33:07.617Z,38.90
2017-05-28T08:35:35.833Z,37.00
2017-05-28T08:38:04.072Z,35.80
2017-05-28T08:40:32.309Z,34.90
2017-05-28T08:43:00.530Z,34.50
2017-05-28T08:45:28.773Z,33.70
2017-05-28T08:47:57.011Z,35.00
2017-05-28T08:50:25.246Z,33.50
2017-05-28T08:52:53.470Z,35.60
2017-05-28T08:55:21.710Z,38.30
2017-05-28T08:57:49.929Z,38.60
2017-05-28T09:00:18.165Z,40.20
2017-05-28T09:02:46.406Z,39.50
2017-05-28T09:05:14.629Z,39.30
2017-05-28T09:07:42.866Z,39.60
2017-05-28T09:10:11.099Z,40.00
2017-05-28T09:12:39.341Z,40.10
2017-05-28T09:15:07.553Z,40.60
2017-05-28T09:17:35.790Z,41.30
2017-05-28T09:20:04.022Z,41.80
2017-05-28T09:22:32.249Z,39.80
2017-05-28T09:25:00.473Z,42.30
2017-05-28T09:27:28.709Z,42.40
2017-05-28T09:29:56.937Z,43.00
2017-05-28T09:32:25.154Z,41.50
2017-05-28T09:34:53.386Z,41.20
2017-05-28T09:37:21.621Z,42.10
2017-05-28T09:39:49.857Z,40.10
2017-05-28T09:42:18.078Z,41.00
2017-05-28T09:44:46.328Z,40.80
2017-05-28T09:47:14.549Z,41.80
2017-05-28T09:49:42.799Z,39.90
2017-05-28T09:52:11.033Z,41.60
2017-05-28T09:54:39.257Z,40.10
2017-05-28T09:57:07.497Z,39.70
2017-05-28T09:59:35.713Z,35.10
2017-05-28T10:02:03.954Z,34.90
2017-05-28T10:04:32.178Z,33.40
2017-05-28T10:07:00.410Z,34.30
2017-05-28T10:09:28.630Z,33.90
2017-05-28T10:11:56.873Z,34.30
2017-05-28T10:14:25.102Z,33.20
2017-05-28T10:16:53.354Z,34.80
2017-05-28T10:19:21.578Z,35.40
2017-05-28T10:21:49.798Z,32.50
2017-05-28T10:24:18.030Z,32.70
2017-05-28T10:26:46.262Z,32.90
2017-05-28T10:29:14.505Z,29.70
2017-05-28T10:31:42.722Z,35.20
2017-05-28T10:34:10.963Z,30.10
2017-05-28T10:36:39.181Z,30.30
2017-05-28T10:39:07.422Z,32.20
2017-05-28T10:41:35.633Z,33.20
2017-05-28T10:44:03.870Z,32.10
2017-05-28T10:46:32.101Z,33.80
2017-05-28T10:49:00.330Z,31.80
2017-05-28T10:51:28.569Z,33.80
2017-05-28T10:53:56.794Z,36.00
2017-05-28T10:56:25.038Z,33.10
2017-05-28T10:58:53.257Z,32.20
2017-05-28T11:01:21.502Z,30.60
2017-05-28T11:03:49.729Z,32.80
2017-05-28T11:06:17.959Z,31.30
2017-05-28T11:08:46.192Z,33.20
2017-05-28T11:11:14.433Z,31.60
2017-05-28T11:13:42.653Z,32.00
2017-05-28T11:16:10.878Z,36.00
2017-05-28T11:18:41.841Z,31.40
2017-05-28T11:21:11.618Z,31.90
2017-05-28T11:23:39.859Z,31.40
2017-05-28T11:26:08.153Z,31.70
2017-05-28T11:28:36.330Z,33.30
2017-05-28T11:31:04.554Z,30.70
2017-05-28T11:33:32.808Z,28.90
2017-05-28T11:36:01.034Z,33.00
2017-05-28T11:38:29.255Z,32.30
2017-05-28T11:40:57.496Z,29.50
2017-05-28T11:43:25.725Z,32.90
2017-05-28T11:45:53.957Z,33.10
2017-05-28T11:48:22.194Z,33.10
2017-05-28T11:50:50.435Z,32.60
2017-05-28T11:53:18.654Z,34.70
2017-05-28T11:55:46.901Z,34.00
2017-05-28T11:58:15.123Z,31.40
2017-05-28T12:00:43.400Z,31.90
2017-05-28T12:03:11.617Z,34.10
2017-05-28T12:05:39.909Z,33.80
2017-05-28T12:08:08.113Z,30.30
2017-05-28T12:10:36.353Z,32.60
2017-05-28T12:13:04.582Z,32.40
2017-05-28T12:15:32.814Z,30.60
2017-05-28T12:18:01.054Z,31.00
2017-05-28T12:20:29.274Z,34.10
2017-05-28T12:22:57.513Z,31.90
2017-05-28T12:25:25.738Z,32.70
2017-05-28T12:27:53.990Z,31.30
2017-05-28T12:30:22.213Z,31.70
2017-05-28T12:32:50.461Z,30.70
2017-05-28T12:35:18.735Z,29.90
2017-05-28T12:37:46.937Z,31.10
2017-05-28T12:40:15.178Z,31.00
2017-05-28T12:42:43.403Z,31.40
2017-05-28T12:45:11.647Z,32.10
2017-05-28T12:47:39.881Z,32.20
2017-05-28T12:50:08.117Z,33.30
2017-05-28T12:52:36.358Z,32.20
2017-05-28T12:55:04.591Z,37.20
2017-05-28T12:57:32.813Z,34.30
2017-05-28T13:00:01.035Z,35.30
2017-05-28T13:02:29.270Z,32.30
2017-05-28T13:04:57.485Z,32.10
2017-05-28T13:07:25.717Z,30.90
2017-05-28T13:09:53.939Z,35.00
2017-05-28T13:12:22.177Z,31.40
2017-05-28T13:14:50.407Z,32.70
2017-05-28T13:17:18.637Z,31.80
2017-05-28T13:19:46.872Z,31.50
2017-05-28T13:22:15.127Z,32.00
2017-05-28T13:24:43.352Z,30.80
2017-05-28T13:27:11.586Z,31.30
2017-05-28T13:29:39.818Z,31.10
2017-05-28T13:32:08.037Z,32.50
2017-05-28T13:34:36.285Z,29.50
2017-05-28T13:37:04.509Z,30.00
2017-05-28T13:39:32.759Z,32.30
2017-05-28T13:42:00.975Z,33.20
2017-05-28T13:44:29.214Z,31.40
2017-05-28T13:46:57.446Z,29.70
2017-05-28T13:49:25.698Z,31.20
2017-05-28T13:51:53.921Z,31.50
2017-05-28T13:54:22.150Z,30.90
2017-05-28T13:56:50.405Z,32.30
2017-05-28T13:59:18.642Z,29.90
2017-05-28T14:01:46.886Z,31.50
2017-05-28T14:04:15.123Z,31.50
2017-05-28T14:06:43.354Z,31.40
2017-05-28T14:09:11.577Z,32.30
2017-05-28T14:11:39.819Z,32.50
2017-05-28T14:14:08.043Z,29.70
2017-05-28T14:16:36.290Z,34.00
2017-05-28T14:19:04.526Z,30.20
2017-05-28T14:21:32.749Z,31.00
2017-05-28T14:24:00.982Z,30.00
2017-05-28T14:26:29.209Z,32.20
2017-05-28T14:28:57.447Z,31.30
2017-05-28T14:31:25.669Z,34.40
2017-05-28T14:33:53.901Z,31.10
2017-05-28T14:36:22.140Z,31.90
2017-05-28T14:38:50.383Z,33.10
2017-05-28T14:41:18.603Z,31.50
2017-05-28T14:43:46.845Z,33.20
2017-05-28T14:55:13.561Z,34.40
2017-05-28T14:57:41.798Z,33.60
2017-05-28T15:00:10.030Z,31.90
2017-05-28T15:02:38.268Z,34.30
2017-05-28T15:05:06.507Z,33.80
2017-05-28T15:07:34.736Z,34.50
2017-05-28T15:10:02.998Z,36.00
2017-05-28T15:12:31.225Z,35.60
2017-05-28T15:14:59.441Z,35.60
2017-05-28T15:17:27.683Z,38.90
2017-05-28T15:19:55.907Z,35.80
2017-05-28T15:22:24.142Z,35.00
2017-05-28T15:24:52.369Z,35.20
2017-05-28T15:27:20.614Z,32.50
2017-05-28T15:29:48.830Z,34.70
2017-05-28T15:32:17.069Z,34.30
2017-05-28T15:34:45.294Z,32.00
2017-05-28T15:37:13.535Z,35.40
2017-05-28T15:39:41.751Z,36.10
2017-05-28T15:42:09.978Z,37.50
2017-05-28T15:44:38.218Z,37.60
2017-05-28T15:47:06.442Z,35.90
2017-05-28T15:49:34.674Z,39.80
2017-05-28T15:52:02.931Z,39.50
2017-05-28T15:54:31.166Z,41.50
2017-05-28T15:56:59.385Z,34.70
2017-05-28T15:59:27.626Z,35.90
2017-05-28T16:01:55.854Z,37.60
2017-05-28T16:04:24.116Z,36.50
2017-05-28T16:06:52.737Z,37.20
2017-05-28T16:09:20.977Z,35.60
2017-05-28T16:11:49.206Z,38.40
2017-05-28T16:14:17.449Z,31.50
2017-05-28T16:16:45.696Z,34.90
2017-05-28T16:19:13.914Z,33.30
2017-05-28T16:21:42.206Z,35.10
2017-05-28T16:24:10.433Z,40.90
2017-05-28T16:26:38.670Z,38.40
2017-05-28T16:29:06.914Z,39.50
2017-05-28T16:31:35.161Z,38.90
2017-05-28T16:34:03.389Z,37.60
2017-05-28T16:36:31.613Z,38.20
2017-05-28T16:38:59.846Z,39.20
2017-05-28T16:41:28.074Z,41.50
2017-05-28T16:43:56.311Z,39.30
2017-05-28T16:46:24.529Z,38.10
2017-05-28T16:48:52.770Z,36.50
2017-05-28T16:51:20.998Z,37.90
2017-05-28T16:53:49.235Z,38.60
2017-05-28T16:56:17.454Z,41.90
2017-05-28T16:58:45.706Z,37.30
2017-05-28T17:01:13.926Z,38.30
2017-05-28T17:03:42.161Z,42.30
2017-05-28T17:06:10.404Z,41.00
2017-05-28T17:08:38.625Z,40.90
2017-05-28T17:11:06.858Z,40.80
2017-05-28T17:13:35.081Z,43.30
2017-05-28T17:16:03.334Z,43.70
2017-05-28T17:18:31.553Z,44.80
2017-05-28T17:20:59.790Z,43.20
2017-05-28T17:23:28.014Z,43.10
2017-05-28T17:25:56.254Z,44.10
2017-05-28T17:28:24.480Z,46.10
2017-05-28T17:30:52.721Z,44.60
2017-05-28T17:33:20.950Z,44.80
2017-05-28T17:35:49.165Z,44.90
2017-05-28T17:38:17.416Z,44.90
2017-05-28T17:40:45.870Z,43.60
2017-05-28T17:43:14.098Z,44.50
2017-05-28T17:45:42.319Z,45.60
2017-05-28T17:48:10.558Z,45.60
2017-05-28T17:50:38.782Z,45.80
2017-05-28T17:53:07.036Z,46.40
2017-05-28T17:55:35.263Z,45.40
2017-05-28T17:58:03.478Z,45.20
2017-05-28T18:00:31.710Z,45.10
2017-05-28T18:02:59.945Z,47.10
2017-05-28T18:05:42.187Z,46.80
2017-05-28T18:08:10.422Z,45.60
2017-05-28T18:10:38.668Z,45.80
2017-05-28T18:13:06.892Z,45.20
2017-05-28T18:15:35.130Z,45.50
2017-05-28T18:18:11.046Z,44.60
2017-05-28T18:20:39.294Z,43.80
2017-05-28T18:23:07.505Z,45.20
2017-05-28T18:25:35.745Z,46.20
2017-05-28T18:28:03.965Z,46.20
2017-05-28T18:30:32.213Z,47.00
2017-05-28T18:33:00.454Z,49.30
2017-05-28T18:35:28.674Z,50.00
2017-05-28T18:37:56.909Z,49.80
2017-05-28T18:40:25.134Z,48.30
2017-05-28T18:42:53.426Z,48.20
2017-05-28T18:45:21.649Z,48.20
2017-05-28T18:47:49.893Z,48.30
2017-05-28T18:50:18.120Z,48.10
2017-05-28T18:52:46.358Z,50.10
2017-05-28T18:55:14.577Z,50.90
2017-05-28T18:57:42.827Z,50.70
2017-05-28T19:00:13.963Z,50.50
2017-05-28T19:02:42.199Z,49.30
2017-05-28T19:05:10.445Z,50.10
2017-05-28T19:07:38.679Z,52.10
2017-05-28T19:10:06.902Z,51.00
2017-05-28T19:12:35.126Z,50.60
2017-05-28T19:15:03.374Z,50.40
2017-05-28T19:17:31.652Z,49.90
2017-05-28T19:20:03.840Z,49.80
2017-05-28T19:22:32.070Z,50.30
2017-05-28T19:25:00.298Z,51.00
2017-05-28T19:27:28.529Z,51.30
2017-05-28T19:29:56.789Z,51.50
2017-05-28T19:32:25.017Z,52.00
2017-05-28T19:34:53.234Z,52.10
2017-05-28T19:37:21.470Z,52.60
2017-05-28T19:39:49.690Z,52.00
2017-05-28T19:42:17.930Z,52.00
2017-05-28T19:44:46.154Z,51.20
2017-05-28T19:47:14.389Z,50.40
2017-05-28T19:49:42.623Z,50.70
2017-05-28T19:52:10.870Z,52.00
2017-05-28T19:54:39.090Z,53.40
2017-05-28T19:57:07.318Z,54.50
2017-05-28T19:59:35.544Z,55.30
2017-05-28T20:02:03.770Z,55.90
2017-05-28T20:04:32.005Z,56.10
2017-05-28T20:07:00.226Z,55.80
2017-05-28T20:09:28.465Z,55.50
2017-05-28T20:11:56.689Z,56.30
2017-05-28T20:14:24.921Z,56.30
2017-05-28T20:16:53.153Z,56.00
2017-05-28T20:19:25.949Z,55.90
2017-05-28T20:21:54.174Z,57.70
2017-05-28T20:24:22.401Z,55.60
2017-05-28T20:26:50.636Z,55.50
2017-05-28T20:29:18.867Z,55.70
2017-05-28T20:31:47.085Z,56.70
2017-05-28T20:34:15.324Z,59.90
2017-05-28T20:36:43.545Z,62.20
2017-05-28T20:39:11.789Z,62.70
2017-05-28T20:41:40.006Z,60.40
2017-05-28T20:44:08.226Z,59.90
2017-05-28T20:46:36.467Z,60.90
2017-05-28T20:49:04.681Z,61.60
2017-05-28T20:51:33.024Z,61.00
2017-05-28T20:54:01.250Z,61.70
2017-05-28T20:56:29.493Z,61.00
2017-05-28T20:58:57.718Z,61.60
2017-05-28T21:01:25.945Z,62.20
2017-05-28T21:03:54.173Z,63.50
2017-05-28T21:06:22.409Z,63.20
2017-05-28T21:08:50.625Z,61.20
2017-05-28T21:11:18.865Z,62.20
2017-05-28T21:13:47.096Z,62.60
2017-05-28T21:16:15.318Z,62.60
2017-05-28T21:21:57.027Z,62.60
2017-05-28T21:24:25.255Z,62.30
2017-05-28T21:26:53.493Z,62.00
2017-05-28T21:29:21.717Z,61.80
2017-05-28T21:31:49.974Z,59.60
2017-05-28T21:34:18.190Z,61.80
2017-05-28T21:36:46.405Z,61.70
2017-05-28T21:39:14.642Z,61.10
2017-05-28T21:41:42.865Z,61.50
2017-05-28T21:44:11.101Z,63.10
2017-05-28T21:46:39.321Z,61.70
2017-05-28T21:49:07.562Z,63.60
2017-05-28T21:51:35.785Z,65.00
2017-05-28T21:54:04.033Z,64.00
2017-05-28T21:56:32.255Z,65.00
2017-05-28T21:59:00.493Z,65.30
2017-05-28T22:01:28.722Z,64.50
2017-05-28T22:03:56.945Z,63.40
2017-05-28T22:06:25.185Z,62.60
2017-05-28T22:08:53.413Z,62.10
2017-05-28T22:11:21.668Z,61.60
2017-05-28T22:13:49.890Z,63.50
2017-05-28T22:16:18.121Z,63.90
2017-05-28T22:18:46.337Z,64.80
2017-05-28T22:21:14.694Z,64.20
2017-05-28T22:23:42.910Z,65.40
2017-05-28T22:26:11.154Z,65.60
2017-05-28T22:28:39.386Z,65.70
2017-05-28T22:31:07.609Z,65.10
2017-05-28T22:33:35.838Z,64.40
2017-05-28T22:36:04.088Z,65.50
2017-05-28T22:38:32.320Z,62.60
2017-05-28T22:41:00.545Z,63.10
2017-05-28T22:43:28.773Z,62.90
2017-05-28T22:45:56.995Z,63.10
2017-05-28T22:48:25.233Z,61.30
2017-05-28T22:50:53.441Z,61.00
2017-05-28T22:53:21.677Z,62.40
2017-05-28T22:55:49.902Z,63.00
2017-05-28T22:58:18.133Z,62.90
2017-05-28T23:00:46.362Z,64.30
2017-05-28T23:03:14.589Z,65.70
2017-05-28T23:05:42.816Z,64.90
2017-05-28T23:08:11.062Z,65.50
2017-05-28T23:10:39.804Z,64.50
2017-05-28T23:13:08.183Z,64.00
2017-05-28T23:15:36.425Z,65.90
2017-05-28T23:18:04.645Z,65.30
2017-05-28T23:20:32.878Z,65.20
2017-05-28T23:23:01.105Z,65.70
2017-05-28T23:25:29.342Z,66.40
2017-05-28T23:27:57.569Z,66.40
2017-05-28T23:30:25.817Z,68.10
2017-05-28T23:32:54.037Z,69.60
2017-05-28T23:35:22.266Z,70.40
2017-05-28T23:37:50.518Z,70.90
2017-05-28T23:40:18.729Z,71.40
2017-05-28T23:42:46.971Z,71.50
2017-05-28T23:45:15.189Z,72.30
2017-05-28T23:47:43.428Z,72.80
2017-05-28T23:50:11.641Z,73.10
2017-05-28T23:52:39.884Z,73.20
2017-05-28T23:55:08.102Z,72.80
2017-05-28T23:57:36.338Z,71.80
